Airfield :
LOGIN :

Register | Disclaimer

   EN    FR    IT 

 










Legend :    VFR   Marginal VFR   IFR   Intensive IFR   Very Intensive IFR
Visi :
Ceiling :
>= 8 km
>= 3000ft
5 to 8 km
1000 to 3000 ft
1500m to 5 km
500 to 1000 ft
800 to 1500m
200 to 500 ft
< 800m
< 200 ft
Symbols :   Thunderstorms  Fog  Heavy snow  Heavy precipitations  Wind > 20 kt
SIGMETs :     Misc.  Thunderstorms  Icing  Turbulence  Mountain Waves  Volcanic Ashes






- Airport Elevation : 42 ft
- IATA code : KGD


UMKK - Khrabrava - Kaliningrad

CURRENT METAR :
  • 192100Z 24002MPS 9999 FEW023 14/14 Q1018 R24/CLRD95 NOSIG RMK QFE762/1017

EXPIRED METARs :
  • 192030Z 23002MPS 9999 FEW020 13/13 Q1018 R24/CLRD95 NOSIG RMK QFE762/1017
  • 192000Z 24002MPS 9999 FEW019 14/14 Q1018 R24/CLRD95 NOSIG RMK QFE762/1017
  • 191930Z 28002MPS CAVOK 16/15 Q1018 R24/CLRD95 NOSIG RMK QFE763/1017
  • 191900Z 29002MPS 250V330 CAVOK 17/15 Q1018 R24/CLRD95 NOSIG RMK QFE763/1017
  • 191830Z 30002MPS 230V320 CAVOK 18/15 Q1019 R24/95D NOSIG RMK QFE763/1017
  • 191800Z 30003MPS 240V330 9999 FEW048 18/15 Q1019 R24/CLRD95 NOSIG RMK QFE763/1017
  • 191730Z 32004MPS 9999 FEW030 19/14 Q1019 R24/CLRD95 NOSIG RMK QFE763/1017
  • 191700Z 31004MPS 9999 FEW030 19/14 Q1019 R24/CLRD95 NOSIG RMK QFE763/1018
  • 191630Z 31005MPS 9999 FEW030 20/14 Q1019 R24/CLRD95 NOSIG RMK QFE763/1018

TAF TAF UMKK
Valid from the 19 at 21:00 until the 20 at 21:00 UTC


191956Z 1921/2021 VRB01MPS 6000 FEW011 SCT020
TEMPO 1921/2005 0300 PRFG BKN002
BECMG 2011/2013 36003G10MPS



MET'MAP, your aeronautical weather chart ! - Copyright ORBIFLY December 2007 - Disclaimer

ORBIFLY MET'MAP TEAM :

Programming & Development : Alexandra Zaïnal
Original concept : Baudouin d'Aumeries
Technical & hardware support : Manuel Goepfert
Assistance : Marc-Olivier Méhu




SOURCES & CREDITS :

   NOAA